createdAt,value
2022-09-28T00:00:19.175Z,98170.56
2022-09-28T00:02:45.882Z,98171.66
2022-09-28T00:05:12.738Z,98172.41
2022-09-28T00:07:39.241Z,98173.34
2022-09-28T00:10:05.927Z,98175.59
2022-09-28T00:12:32.449Z,98193.25
2022-09-28T00:14:58.969Z,98181.28
2022-09-28T00:17:26.496Z,98177.72
2022-09-28T00:19:52.952Z,98173.25
2022-09-28T00:22:19.376Z,98171.56
2022-09-28T00:24:45.924Z,98177.25
2022-09-28T00:27:12.879Z,98166.47
2022-09-28T00:29:39.259Z,98165.19
2022-09-28T00:32:11.694Z,98166.41
2022-09-28T00:34:45.718Z,98167.34
2022-09-28T00:37:13.331Z,98166.47
2022-09-28T00:39:41.380Z,98161.41
2022-09-28T00:42:13.594Z,98163.97
2022-09-28T00:44:42.631Z,98158.53
2022-09-28T00:47:49.928Z,98153.63
2022-09-28T00:50:32.290Z,98154.53
2022-09-28T00:53:11.227Z,98154.06
2022-09-28T00:55:41.844Z,98152.28
2022-09-28T00:58:11.717Z,98150.56
2022-09-28T01:00:40.817Z,98145.66
2022-09-28T01:03:09.124Z,98145.56
2022-09-28T01:05:36.984Z,98141.03
2022-09-28T01:08:04.560Z,98135.59
2022-09-28T01:10:31.545Z,98141.03
2022-09-28T01:12:59.349Z,98139.13
2022-09-28T01:15:28.322Z,98129.78
2022-09-28T01:18:01.003Z,98127.44
2022-09-28T01:20:34.238Z,98125.81
2022-09-28T01:23:26.897Z,98121.59
2022-09-28T01:26:12.448Z,98128.53
2022-09-28T01:28:43.024Z,98126.78
2022-09-28T01:31:14.576Z,98125.06
2022-09-28T01:33:51.129Z,98123.31
2022-09-28T01:36:21.342Z,98120.66
2022-09-28T01:38:53.637Z,98107.97
2022-09-28T01:41:22.421Z,98105.72
2022-09-28T01:43:53.822Z,98103.91
2022-09-28T01:46:22.733Z,98102.56
2022-09-28T01:48:55.853Z,98101.56
2022-09-28T01:51:32.402Z,98091.97
2022-09-28T01:54:02.881Z,98090.56
2022-09-28T01:56:39.384Z,98088.00
2022-09-28T01:59:13.415Z,98084.28
2022-09-28T02:01:43.693Z,98074.22
2022-09-28T02:04:15.161Z,98081.53
2022-09-28T02:06:52.715Z,98079.09
2022-09-28T02:09:23.625Z,98068.22
2022-09-28T02:11:54.916Z,98069.31
2022-09-28T02:14:22.889Z,98070.16
2022-09-28T02:16:51.859Z,98072.84
2022-09-28T02:19:24.339Z,98068.50
2022-09-28T02:22:00.865Z,98069.78
2022-09-28T02:24:35.713Z,98074.31
2022-09-28T02:27:10.227Z,98068.13
2022-09-28T02:29:36.614Z,98066.09
2022-09-28T02:32:03.105Z,98064.72
2022-09-28T02:34:29.547Z,98064.06
2022-09-28T02:36:56.146Z,98064.06
2022-09-28T02:39:22.590Z,98063.69
2022-09-28T02:41:59.351Z,98054.75
2022-09-28T02:44:50.306Z,98055.03
2022-09-28T02:47:36.390Z,98047.72
2022-09-28T02:50:18.549Z,98042.63
2022-09-28T02:53:13.878Z,98049.09
2022-09-28T02:56:08.637Z,98044.41
2022-09-28T02:58:52.562Z,98030.66
2022-09-28T03:01:36.832Z,98031.59
2022-09-28T03:04:17.279Z,98033.88
2022-09-28T03:06:53.617Z,98035.63
2022-09-28T03:09:28.271Z,98035.16
2022-09-28T03:12:00.105Z,98033.41
2022-09-28T03:14:26.924Z,98035.13
2022-09-28T03:16:53.350Z,98026.00
2022-09-28T03:19:24.303Z,98021.06
2022-09-28T03:21:50.789Z,98021.63
2022-09-28T03:24:17.477Z,98017.66
2022-09-28T03:26:43.934Z,98018.84
2022-09-28T03:29:10.394Z,98015.88
2022-09-28T03:31:36.937Z,98008.69
2022-09-28T03:34:03.608Z,98013.03
2022-09-28T03:36:30.210Z,98006.59
2022-09-28T03:38:56.744Z,98004.84
2022-09-28T03:41:29.800Z,98007.09
2022-09-28T03:43:56.269Z,98006.66
2022-09-28T03:46:23.045Z,97996.88
2022-09-28T03:48:49.452Z,98004.81
2022-09-28T03:51:15.997Z,98002.88
2022-09-28T03:53:42.573Z,98002.97
2022-09-28T03:56:12.148Z,98007.56
2022-09-28T03:58:38.658Z,98003.50
2022-09-28T04:01:10.777Z,98002.41
2022-09-28T04:03:39.657Z,97998.13
2022-09-28T04:06:06.150Z,98001.09
2022-09-28T04:08:32.599Z,97988.72
2022-09-28T04:11:00.496Z,97988.31
2022-09-28T04:13:28.083Z,97981.38
2022-09-28T04:16:00.231Z,97981.50
2022-09-28T04:18:27.132Z,97973.28
2022-09-28T04:21:06.697Z,97975.97
2022-09-28T04:23:38.723Z,97976.47
2022-09-28T04:26:07.427Z,97983.06
2022-09-28T04:28:52.768Z,97982.00
2022-09-28T04:31:23.095Z,97977.94
2022-09-28T04:33:49.699Z,97975.06
2022-09-28T04:36:17.586Z,97978.94
2022-09-28T04:38:59.356Z,97973.34
2022-09-28T04:41:26.505Z,97955.16
2022-09-28T04:43:52.914Z,97951.28
2022-09-28T04:46:19.431Z,97954.78
2022-09-28T04:48:46.094Z,97952.03
2022-09-28T04:51:12.727Z,97944.00
2022-09-28T04:53:39.289Z,97942.34
2022-09-28T04:56:11.158Z,97928.31
2022-09-28T04:58:38.000Z,97921.63
2022-09-28T05:01:09.468Z,97910.03
2022-09-28T05:03:35.885Z,97918.69
2022-09-28T05:06:02.690Z,97920.75
2022-09-28T05:08:34.797Z,97909.06
2022-09-28T05:11:06.171Z,97919.97
2022-09-28T05:13:36.985Z,97914.16
2022-09-28T05:16:05.694Z,97924.81
2022-09-28T05:18:32.306Z,97927.03
2022-09-28T05:20:58.780Z,97930.63
2022-09-28T05:23:25.152Z,97927.28
2022-09-28T05:25:51.643Z,97922.25
2022-09-28T05:28:26.642Z,97922.38
2022-09-28T05:30:53.279Z,97917.03
2022-09-28T05:33:19.795Z,97911.03
2022-09-28T05:35:49.785Z,97911.03
2022-09-28T05:38:19.012Z,97908.03
2022-09-28T05:40:45.622Z,97904.72
2022-09-28T05:43:12.183Z,97905.78
2022-09-28T05:45:38.772Z,97901.22
2022-09-28T05:48:05.237Z,97909.28
2022-09-28T05:50:31.831Z,97909.78
2022-09-28T05:53:00.247Z,97906.19
2022-09-28T05:55:26.742Z,97901.56
2022-09-28T05:57:53.217Z,97902.63
2022-09-28T06:00:19.840Z,97901.78
2022-09-28T06:02:58.578Z,97896.91
2022-09-28T06:05:25.142Z,97890.78
2022-09-28T06:07:52.146Z,97886.44
2022-09-28T06:10:19.058Z,97881.69
2022-09-28T06:12:47.821Z,97887.91
2022-09-28T06:15:15.520Z,97876.41
2022-09-28T06:17:43.757Z,97873.03
2022-09-28T06:20:11.485Z,97867.66
2022-09-28T06:22:38.698Z,97862.50
2022-09-28T06:25:06.792Z,97867.31
2022-09-28T06:27:34.408Z,97864.88
2022-09-28T06:30:02.016Z,97859.22
2022-09-28T06:32:29.707Z,97856.75
2022-09-28T06:34:56.775Z,97852.06
2022-09-28T06:37:23.292Z,97850.44
2022-09-28T06:39:49.687Z,97862.44
2022-09-28T06:42:18.697Z,97873.25
2022-09-28T06:44:46.282Z,97867.94
2022-09-28T06:47:12.735Z,97866.31
2022-09-28T06:49:39.129Z,97860.31
2022-09-28T06:52:06.067Z,97869.47
2022-09-28T06:54:32.801Z,97873.81
2022-09-28T06:56:59.218Z,97867.63
2022-09-28T06:59:25.674Z,97866.38
2022-09-28T07:01:52.150Z,97865.75
2022-09-28T07:04:18.846Z,97862.47
2022-09-28T07:06:48.414Z,97858.94
2022-09-28T07:09:31.305Z,97858.13
2022-09-28T07:11:59.285Z,97868.88
2022-09-28T07:14:45.234Z,97866.41
2022-09-28T07:17:14.408Z,97869.31
2022-09-28T07:19:41.258Z,97870.34
2022-09-28T07:22:07.883Z,97878.00
2022-09-28T07:24:34.374Z,97891.84
2022-09-28T07:27:01.921Z,97890.81
2022-09-28T07:29:28.308Z,97901.97
2022-09-28T07:31:54.746Z,97904.88
2022-09-28T07:34:23.133Z,97899.72
2022-09-28T07:36:49.544Z,97895.16
2022-09-28T07:39:15.914Z,97884.19
2022-09-28T07:41:43.065Z,97889.56
2022-09-28T07:44:09.474Z,97880.28
2022-09-28T07:46:37.031Z,97879.41
2022-09-28T07:49:09.907Z,97886.66
2022-09-28T07:51:38.725Z,97881.00
2022-09-28T07:54:06.506Z,97884.50
2022-09-28T07:56:34.856Z,97883.69
2022-09-28T07:59:01.454Z,97883.06
2022-09-28T08:01:28.091Z,97882.44
2022-09-28T08:03:56.311Z,97880.78
2022-09-28T08:06:23.248Z,97877.03
2022-09-28T08:08:50.342Z,97888.41
2022-09-28T08:11:18.721Z,97890.69
2022-09-28T08:13:46.468Z,97890.88
2022-09-28T08:16:13.232Z,97888.22
2022-09-28T08:18:39.819Z,97882.44
2022-09-28T08:21:25.234Z,97882.47
2022-09-28T08:23:53.006Z,97876.72
2022-09-28T08:26:19.865Z,97883.75
2022-09-28T08:28:47.713Z,97881.25
2022-09-28T08:31:14.536Z,97882.72
2022-09-28T08:33:42.125Z,97872.59
2022-09-28T08:36:09.890Z,97877.09
2022-09-28T08:38:36.289Z,97885.41
2022-09-28T08:41:11.895Z,97885.38
2022-09-28T08:43:58.053Z,97891.16
2022-09-28T08:46:29.556Z,97890.72
2022-09-28T08:49:26.519Z,97879.28
2022-09-28T08:52:03.701Z,97883.44
2022-09-28T08:54:33.340Z,97881.16
2022-09-28T08:57:15.132Z,97873.88
2022-09-28T08:59:59.737Z,97870.41
2022-09-28T09:02:34.341Z,97874.13
2022-09-28T09:05:03.770Z,97880.19
2022-09-28T09:08:01.293Z,97882.59
2022-09-28T09:10:43.218Z,97887.41
2022-09-28T09:13:48.271Z,97888.94
2022-09-28T09:16:31.824Z,97874.84
2022-09-28T09:19:26.331Z,97875.28
2022-09-28T09:22:01.501Z,97881.75
2022-09-28T09:24:34.065Z,97868.25
2022-09-28T09:27:14.515Z,97860.31
2022-09-28T09:29:50.242Z,97865.31
2022-09-28T09:32:26.961Z,97857.94
2022-09-28T09:35:26.074Z,97856.31
2022-09-28T09:38:07.177Z,97861.38
2022-09-28T09:40:58.437Z,97861.47
2022-09-28T09:43:34.179Z,97859.03
2022-09-28T09:46:41.547Z,97857.34
2022-09-28T09:49:27.491Z,97843.91
2022-09-28T09:52:10.410Z,97854.00
2022-09-28T09:54:51.231Z,97853.31
2022-09-28T09:57:21.637Z,97847.53
2022-09-28T09:59:48.440Z,97838.75
2022-09-28T10:02:23.803Z,97839.97
2022-09-28T10:04:54.978Z,97839.00
2022-09-28T10:07:30.640Z,97836.59
2022-09-28T10:09:58.362Z,97836.13
2022-09-28T10:12:25.316Z,97833.06
2022-09-28T10:14:53.289Z,97836.78
2022-09-28T10:17:26.702Z,97837.53
2022-09-28T10:19:54.980Z,97834.84
2022-09-28T10:22:24.199Z,97828.41
2022-09-28T10:24:58.520Z,97822.38
2022-09-28T10:27:31.184Z,97816.28
2022-09-28T10:30:23.261Z,97814.31
2022-09-28T10:32:52.474Z,97817.72
2022-09-28T10:35:18.974Z,97816.47
2022-09-28T10:38:04.652Z,97810.50
2022-09-28T10:41:10.596Z,97810.34
2022-09-28T10:43:39.095Z,97801.28
2022-09-28T10:46:12.914Z,97800.88
2022-09-28T10:48:52.374Z,97790.56
2022-09-28T10:51:18.755Z,97790.13
2022-09-28T10:54:02.034Z,97781.50
2022-09-28T10:56:30.428Z,97790.41
2022-09-28T10:58:57.966Z,97792.69
2022-09-28T11:01:32.084Z,97798.50
2022-09-28T11:04:03.654Z,97798.47
2022-09-28T11:06:37.865Z,97795.44
2022-09-28T11:09:07.634Z,97798.47
2022-09-28T11:11:41.640Z,97804.94
2022-09-28T11:14:22.718Z,97807.81
2022-09-28T11:17:28.871Z,97800.00
2022-09-28T11:20:27.404Z,97787.22
2022-09-28T11:23:20.573Z,97762.41
2022-09-28T11:26:05.962Z,97774.03
2022-09-28T11:28:35.908Z,97783.97
2022-09-28T11:31:03.542Z,97786.50
2022-09-28T11:33:39.094Z,97782.25
2022-09-28T11:36:14.844Z,97773.69
2022-09-28T11:39:11.645Z,97799.88
2022-09-28T11:41:57.191Z,97809.63
2022-09-28T11:44:38.449Z,97811.09
2022-09-28T11:47:31.859Z,97821.94
2022-09-28T11:50:03.346Z,97830.84
2022-09-28T11:52:57.714Z,97827.19
2022-09-28T11:56:00.197Z,97822.91
2022-09-28T11:58:32.918Z,97834.69
2022-09-28T12:01:39.667Z,97827.06
2022-09-28T12:04:14.315Z,97840.13
2022-09-28T12:06:46.038Z,97820.28
2022-09-28T12:09:18.193Z,97858.84
2022-09-28T12:11:45.836Z,97857.28
2022-09-28T12:14:23.462Z,97864.97
2022-09-28T12:17:07.355Z,97860.41
2022-09-28T12:20:13.200Z,97862.09
2022-09-28T12:22:54.814Z,97860.22
2022-09-28T12:25:23.174Z,97862.09
2022-09-28T12:28:07.051Z,97866.13
2022-09-28T12:30:36.105Z,97858.03
2022-09-28T12:33:17.808Z,97867.13
2022-09-28T12:36:22.870Z,97888.38
2022-09-28T12:39:17.538Z,97882.25
2022-09-28T12:41:57.614Z,97898.03
2022-09-28T12:44:37.427Z,97896.53
2022-09-28T12:47:28.937Z,97899.69
2022-09-28T12:53:41.641Z,97916.56
2022-09-28T12:56:31.363Z,97913.47
2022-09-28T12:59:28.873Z,97914.19
2022-09-28T13:02:17.851Z,97918.78
2022-09-28T13:04:53.963Z,97919.75
2022-09-28T13:07:32.696Z,97920.75
2022-09-28T13:10:05.682Z,97923.97
2022-09-28T13:12:56.134Z,97919.88
2022-09-28T13:15:41.569Z,97925.50
2022-09-28T13:18:21.763Z,97931.50
2022-09-28T13:20:56.358Z,97935.81
2022-09-28T13:23:29.513Z,97935.97
2022-09-28T13:26:17.578Z,97937.00
2022-09-28T13:28:46.959Z,97938.34
2022-09-28T13:31:19.466Z,97947.56
2022-09-28T13:33:46.844Z,97946.69
2022-09-28T13:36:28.822Z,97947.81
2022-09-28T13:38:56.840Z,97949.59
2022-09-28T13:41:29.097Z,97959.94
2022-09-28T13:44:11.042Z,97963.75
2022-09-28T13:47:01.501Z,97968.56
2022-09-28T13:49:51.410Z,97961.47
2022-09-28T13:52:34.533Z,97962.97
2022-09-28T13:55:19.087Z,97969.88
2022-09-28T13:57:52.016Z,97966.56
2022-09-28T14:00:29.344Z,97980.97
2022-09-28T14:03:04.799Z,97976.03
2022-09-28T14:05:53.250Z,97980.47
2022-09-28T14:08:41.359Z,97984.41
2022-09-28T14:14:13.841Z,97998.91
2022-09-28T14:16:41.439Z,97996.13
2022-09-28T14:22:52.585Z,98005.84
2022-09-28T14:26:09.102Z,98025.78
2022-09-28T14:29:09.313Z,98022.66
2022-09-28T14:31:44.084Z,98030.31
2022-09-28T14:34:25.047Z,98014.81
2022-09-28T14:37:10.407Z,98019.53
2022-09-28T14:39:56.425Z,98022.06
2022-09-28T14:42:25.319Z,98014.19
2022-09-28T14:45:06.768Z,98017.31
2022-09-28T14:47:38.171Z,98014.81
2022-09-28T14:50:25.842Z,98025.06
2022-09-28T14:52:57.379Z,98029.38
2022-09-28T14:55:28.172Z,98034.16
2022-09-28T14:58:02.824Z,98036.31
2022-09-28T15:00:31.770Z,98033.06
2022-09-28T15:03:05.952Z,98039.19
2022-09-28T15:05:44.047Z,98044.50
2022-09-28T15:08:12.055Z,98046.66
2022-09-28T15:10:42.576Z,98047.81
2022-09-28T15:13:21.307Z,98053.72
2022-09-28T15:15:50.705Z,98053.66
2022-09-28T15:18:31.142Z,98055.19
2022-09-28T15:21:02.020Z,98053.03
2022-09-28T15:23:40.674Z,98050.59
2022-09-28T15:26:18.519Z,98063.22
2022-09-28T15:29:15.468Z,98062.19
2022-09-28T15:31:42.430Z,98061.75
2022-09-28T15:34:51.369Z,98065.94
2022-09-28T15:37:29.381Z,98068.19
2022-09-28T15:39:57.345Z,98063.63
2022-09-28T15:42:24.003Z,98067.16
2022-09-28T15:45:13.412Z,98068.81
2022-09-28T15:47:44.855Z,98078.41
2022-09-28T15:50:31.706Z,98077.97
2022-09-28T15:53:01.117Z,98076.94
2022-09-28T15:55:32.294Z,98094.56
2022-09-28T15:58:18.650Z,98097.69
2022-09-28T16:00:48.265Z,98093.50
2022-09-28T16:03:17.643Z,98094.53
2022-09-28T16:05:50.560Z,98095.38
2022-09-28T16:08:35.791Z,98108.00
2022-09-28T16:11:31.391Z,98108.63
2022-09-28T16:14:17.560Z,98106.56
2022-09-28T16:16:51.025Z,98110.03
2022-09-28T16:19:26.075Z,98120.19
2022-09-28T16:21:53.374Z,98114.59
2022-09-28T16:24:32.103Z,98121.63
2022-09-28T16:27:02.602Z,98133.41
2022-09-28T16:29:35.740Z,98126.38
2022-09-28T16:32:27.369Z,98134.22
2022-09-28T16:35:17.727Z,98134.59
2022-09-28T16:37:44.945Z,98145.53
2022-09-28T16:40:12.421Z,98145.34
2022-09-28T16:42:42.652Z,98144.91
2022-09-28T16:45:19.823Z,98149.84
2022-09-28T16:47:52.043Z,98150.69
2022-09-28T16:50:20.922Z,98151.53
2022-09-28T16:53:08.675Z,98149.88
2022-09-28T16:55:40.465Z,98159.41
2022-09-28T16:58:07.322Z,98154.84
2022-09-28T17:00:33.981Z,98156.22
2022-09-28T17:03:02.302Z,98146.50
2022-09-28T17:05:30.207Z,98150.81
2022-09-28T17:08:01.849Z,98147.91
2022-09-28T17:10:55.740Z,98154.72
2022-09-28T17:13:31.470Z,98151.81
2022-09-28T17:15:58.427Z,98157.00
2022-09-28T17:18:25.707Z,98162.13
2022-09-28T17:20:55.898Z,98167.06
2022-09-28T17:23:22.528Z,98165.34
2022-09-28T17:25:49.001Z,98164.56
2022-09-28T17:28:27.391Z,98168.94
2022-09-28T17:30:54.428Z,98184.88
2022-09-28T17:33:22.593Z,98181.19
2022-09-28T17:36:00.119Z,98188.00
2022-09-28T17:38:28.144Z,98186.47
2022-09-28T17:40:54.687Z,98192.03
2022-09-28T17:43:22.216Z,98185.97
2022-09-28T17:45:48.869Z,98189.91
2022-09-28T17:48:18.587Z,98187.38
2022-09-28T17:50:47.341Z,98188.78
2022-09-28T17:53:16.778Z,98186.22
2022-09-28T17:55:44.438Z,98190.25
2022-09-28T17:58:16.809Z,98193.53
2022-09-28T18:00:46.586Z,98186.72
2022-09-28T18:03:17.181Z,98180.19
2022-09-28T18:05:49.692Z,98188.13
2022-09-28T18:08:28.950Z,98185.00
2022-09-28T18:10:56.889Z,98183.66
2022-09-28T18:13:28.498Z,98184.44
2022-09-28T18:15:58.604Z,98187.31
2022-09-28T18:18:25.932Z,98182.22
2022-09-28T18:20:56.210Z,98185.66
2022-09-28T18:23:22.876Z,98182.56
2022-09-28T18:25:50.045Z,98179.44
2022-09-28T18:28:18.139Z,98183.28
2022-09-28T18:30:45.638Z,98189.00
2022-09-28T18:33:13.388Z,98182.47
2022-09-28T18:35:43.534Z,98184.88
2022-09-28T18:38:13.237Z,98184.06
2022-09-28T18:40:39.882Z,98193.22
2022-09-28T18:43:07.329Z,98189.44
2022-09-28T18:45:34.755Z,98189.63
2022-09-28T18:48:01.440Z,98188.03
2022-09-28T18:50:28.369Z,98180.63
2022-09-28T18:53:11.594Z,98187.09
2022-09-28T18:55:42.480Z,98187.38
2022-09-28T18:58:14.709Z,98188.47
2022-09-28T19:00:43.550Z,98188.81
2022-09-28T19:03:11.209Z,98193.81
2022-09-28T19:05:42.628Z,98193.81
2022-09-28T19:08:12.217Z,98201.53
2022-09-28T19:10:38.707Z,98192.97
2022-09-28T19:13:05.273Z,98186.69
2022-09-28T19:15:33.030Z,98188.09
2022-09-28T19:18:01.503Z,98192.09
2022-09-28T19:20:27.932Z,98187.66
2022-09-28T19:22:54.548Z,98193.22
2022-09-28T19:25:21.056Z,98203.38
2022-09-28T19:27:48.739Z,98205.84
2022-09-28T19:30:15.415Z,98209.50
2022-09-28T19:32:42.911Z,98207.19
2022-09-28T19:35:14.619Z,98203.69
2022-09-28T19:37:46.262Z,98204.41
2022-09-28T19:40:15.740Z,98193.13
2022-09-28T19:42:42.521Z,98206.22
2022-09-28T19:45:10.947Z,98206.09
2022-09-28T19:47:37.492Z,98195.47
2022-09-28T19:50:05.851Z,98205.41
2022-09-28T19:52:32.546Z,98213.03
2022-09-28T19:55:00.230Z,98204.72
2022-09-28T19:57:31.944Z,98198.81
2022-09-28T20:00:02.779Z,98201.13
2022-09-28T20:02:34.930Z,98209.34
2022-09-28T20:05:02.272Z,98205.41
2022-09-28T20:07:32.774Z,98208.25
2022-09-28T20:10:00.646Z,98207.03
2022-09-28T20:12:27.201Z,98206.72
2022-09-28T20:14:54.271Z,98205.03
2022-09-28T20:17:21.890Z,98215.03
2022-09-28T20:19:51.749Z,98214.41
2022-09-28T20:22:25.524Z,98218.63
2022-09-28T20:24:52.673Z,98221.19
2022-09-28T20:27:22.098Z,98226.88
2022-09-28T20:29:53.812Z,98233.91
2022-09-28T20:32:21.720Z,98224.91
2022-09-28T20:34:48.347Z,98238.69
2022-09-28T20:37:17.269Z,98242.00
2022-09-28T20:39:45.074Z,98236.69
2022-09-28T20:42:15.643Z,98243.75
2022-09-28T20:44:43.061Z,98249.44
2022-09-28T20:47:11.691Z,98254.63
2022-09-28T20:49:38.122Z,98248.44
2022-09-28T20:52:04.574Z,98256.16
2022-09-28T20:54:31.010Z,98258.66
2022-09-28T20:56:57.460Z,98264.00
2022-09-28T20:59:26.432Z,98267.34
2022-09-28T21:01:53.314Z,98263.34
2022-09-28T21:04:19.978Z,98262.50
2022-09-28T21:06:46.659Z,98275.06
2022-09-28T21:09:13.360Z,98274.56
2022-09-28T21:11:41.689Z,98274.72
2022-09-28T21:14:10.242Z,98280.72
2022-09-28T21:16:39.155Z,98283.06
2022-09-28T21:19:05.866Z,98279.56
2022-09-28T21:21:32.414Z,98278.03
2022-09-28T21:23:59.271Z,98286.88
2022-09-28T21:26:28.414Z,98282.56
2022-09-28T21:29:04.837Z,98288.41
2022-09-28T21:31:39.870Z,98288.75
2022-09-28T21:34:12.357Z,98294.06
2022-09-28T21:36:40.684Z,98289.06
2022-09-28T21:39:10.204Z,98291.38
2022-09-28T21:41:37.061Z,98294.53
2022-09-28T21:44:03.643Z,98304.88
2022-09-28T21:46:34.306Z,98301.53
2022-09-28T21:49:01.559Z,98295.84
2022-09-28T21:51:31.021Z,98296.84
2022-09-28T21:53:57.556Z,98304.19
2022-09-28T21:56:24.267Z,98303.03
2022-09-28T21:58:51.192Z,98308.19
2022-09-28T22:01:25.490Z,98303.00
2022-09-28T22:03:55.733Z,98299.81
2022-09-28T22:06:24.996Z,98308.34
2022-09-28T22:08:53.714Z,98303.00
2022-09-28T22:11:22.557Z,98309.00
2022-09-28T22:13:51.592Z,98299.03
2022-09-28T22:16:22.938Z,98308.34
2022-09-28T22:18:50.101Z,98309.81
2022-09-28T22:21:17.800Z,98308.16
2022-09-28T22:23:44.855Z,98310.47
2022-09-28T22:26:12.932Z,98306.28
2022-09-28T22:28:44.656Z,98303.94
2022-09-28T22:31:14.161Z,98306.81
2022-09-28T22:33:40.741Z,98302.94
2022-09-28T22:36:07.909Z,98309.28
2022-09-28T22:38:40.113Z,98316.28
2022-09-28T22:41:06.979Z,98304.13
2022-09-28T22:43:34.713Z,98304.63
2022-09-28T22:46:01.777Z,98312.13
2022-09-28T22:48:33.040Z,98303.28
2022-09-28T22:50:59.723Z,98305.59
2022-09-28T22:53:26.348Z,98309.28
2022-09-28T22:55:52.808Z,98304.78
2022-09-28T22:58:19.388Z,98315.75
2022-09-28T23:00:49.902Z,98322.91
2022-09-28T23:03:17.962Z,98326.25
2022-09-28T23:05:56.743Z,98317.63
2022-09-28T23:08:24.067Z,98319.09
2022-09-28T23:10:53.868Z,98319.72
2022-09-28T23:13:20.328Z,98327.72
2022-09-28T23:16:14.834Z,98321.28
2022-09-28T23:18:42.414Z,98314.00
2022-09-28T23:21:15.833Z,98319.81
2022-09-28T23:23:43.883Z,98328.53
2022-09-28T23:26:16.319Z,98325.63
2022-09-28T23:28:44.516Z,98326.09
2022-09-28T23:31:26.165Z,98333.25
2022-09-28T23:33:57.379Z,98330.94
2022-09-28T23:36:24.214Z,98332.94
2022-09-28T23:38:50.749Z,98332.59
2022-09-28T23:41:17.322Z,98340.53
2022-09-28T23:43:45.053Z,98342.72
2022-09-28T23:46:11.961Z,98347.69
2022-09-28T23:48:38.898Z,98341.63
2022-09-28T23:51:05.576Z,98345.59
2022-09-28T23:53:35.029Z,98341.44
2022-09-28T23:56:05.061Z,98349.59
2022-09-28T23:58:31.537Z,98345.09
